Time;durP1;ratioP1;P1;durP2;ratioP2;P2;SDS_P1;SDS_P2;PMS_P1;PMS_P2;Temp;Humidity;BMP_temperature;BMP_pressure;BME280_temperature;BME280_humidity;BME280_pressure;Samples;Min_cycle;Max_cycle;Signal;HPM_P1;HPM_P2
2021/12/17 00:07:09;;;;;;;22.03;9.03;;;14.90;91.60;;;;;;5186483;28;20122;-31
2021/12/17 00:09:41;;;;;;;20.67;7.70;;;14.90;91.60;;;;;;5187071;28;20038;-31
2021/12/17 00:12:14;;;;;;;23.47;7.83;;;14.90;91.60;;;;;;5187213;28;20042;-31
2021/12/17 00:14:47;;;;;;;20.90;8.98;;;14.90;91.60;;;;;;5187293;28;20069;-30
2021/12/17 00:17:24;;;;;;;22.27;8.57;;;14.90;91.60;;;;;;5185890;28;20395;-32
2021/12/17 00:53:30;;;;;;;16.27;5.90;;;14.70;92.00;;;;;;5149011;28;20047;-31
2021/12/17 00:56:01;;;;;;;18.80;7.22;;;14.70;92.00;;;;;;5164290;28;20412;-31
2021/12/17 00:58:32;;;;;;;20.50;7.57;;;14.70;92.10;;;;;;5164041;28;20133;-31
2021/12/17 01:01:03;;;;;;;19.63;8.07;;;14.60;92.00;;;;;;5162709;28;20061;-32
2021/12/17 01:03:34;;;;;;;16.13;6.37;;;14.70;92.10;;;;;;5182985;28;20462;-30
2021/12/17 01:06:06;;;;;;;13.80;5.53;;;14.60;91.90;;;;;;5199592;28;20038;-32
2021/12/17 01:08:36;;;;;;;15.63;6.03;;;14.60;92.00;;;;;;5182913;28;20038;-31
2021/12/17 01:11:07;;;;;;;17.40;6.37;;;14.60;92.00;;;;;;5157672;28;20035;-31
2021/12/17 01:13:40;;;;;;;19.80;5.90;;;14.60;92.00;;;;;;5166499;28;20117;-31
2021/12/17 01:16:12;;;;;;;15.77;6.15;;;14.50;92.00;;;;;;5165354;28;20039;-30
2021/12/17 01:24:17;;;;;;;20.13;7.13;;;14.50;91.90;;;;;;5166497;28;20046;-30
2021/12/17 01:35:21;;;;;;;17.70;5.13;;;14.40;91.80;;;;;;5150743;28;20416;-32
2021/12/17 01:43:20;;;;;;;16.30;6.67;;;14.40;91.60;;;;;;5168311;28;20211;-31
2021/12/17 01:45:51;;;;;;;15.13;5.13;;;14.40;91.50;;;;;;5169588;28;20097;-31
2021/12/17 01:48:29;;;;;;;19.73;7.53;;;14.40;91.50;;;;;;5168439;28;20078;-33
2021/12/17 01:56:56;;;;;;;15.37;6.27;;;14.50;91.40;;;;;;5189650;28;20056;-31
2021/12/17 01:59:36;;;;;;;14.63;5.53;;;14.60;91.30;;;;;;5158689;28;20065;-33
2021/12/17 02:02:08;;;;;;;18.73;6.27;;;14.70;91.30;;;;;;5173611;28;20391;-31
2021/12/17 02:04:39;;;;;;;20.77;8.83;;;14.80;91.30;;;;;;5172240;28;20042;-33
2021/12/17 02:07:11;;;;;;;19.43;10.07;;;14.90;91.10;;;;;;5189928;28;20045;-31
2021/12/17 02:12:38;;;;;;;10.83;5.33;;;14.90;91.00;;;;;;5189422;28;20129;-32
2021/12/17 02:31:56;;;;;;;20.33;9.27;;;13.40;92.70;;;;;;5189137;28;20046;-31
2021/12/17 02:37:12;;;;;;;20.83;9.33;;;13.70;92.30;;;;;;5189376;28;20470;-31
2021/12/17 02:45:32;;;;;;;14.87;5.57;;;13.90;92.00;;;;;;5188428;28;20058;-31
2021/12/17 02:48:07;;;;;;;12.10;4.20;;;14.00;91.90;;;;;;5188988;28;20535;-31
2021/12/17 02:50:49;;;;;;;12.87;5.33;;;14.00;91.90;;;;;;5188179;28;20057;-31
2021/12/17 02:53:21;;;;;;;13.43;5.30;;;14.00;91.90;;;;;;5171169;28;20046;-32
2021/12/17 02:56:00;;;;;;;18.37;7.23;;;14.10;91.80;;;;;;5171399;28;20491;-31
2021/12/17 02:58:32;;;;;;;13.40;5.63;;;14.10;91.80;;;;;;5188835;28;20048;-33
2021/12/17 03:01:05;;;;;;;14.73;5.07;;;14.10;91.90;;;;;;5170985;28;20046;-31
2021/12/17 03:03:37;;;;;;;17.02;7.20;;;14.10;91.90;;;;;;5188718;28;20046;-31
2021/12/17 03:06:08;;;;;;;11.57;5.73;;;14.10;91.80;;;;;;5154982;28;20491;-32
2021/12/17 03:08:39;;;;;;;21.10;7.43;;;14.10;92.00;;;;;;5188509;28;20500;-32
2021/12/17 03:11:10;;;;;;;25.50;10.90;;;14.10;91.90;;;;;;5170818;28;20054;-33
2021/12/17 03:13:44;;;;;;;31.97;16.27;;;14.10;91.90;;;;;;5170876;28;20483;-32
2021/12/17 03:16:36;;;;;;;;;;;14.10;91.80;;;;;;5188788;28;20100;-32
2021/12/17 03:19:24;;;;;;;25.97;11.30;;;14.10;91.80;;;;;;5188261;28;19964;-31
2021/12/17 03:24:44;;;;;;;22.30;10.13;;;14.10;91.70;;;;;;5173544;28;20065;-31
2021/12/17 03:27:15;;;;;;;21.63;10.47;;;14.20;91.70;;;;;;5187996;28;20096;-32
2021/12/17 03:29:46;;;;;;;15.50;5.80;;;14.20;91.70;;;;;;5187965;28;20046;-31
2021/12/17 03:32:17;;;;;;;16.10;7.07;;;14.10;91.70;;;;;;5170746;28;20104;-31
2021/12/17 03:34:48;;;;;;;14.93;6.47;;;14.20;91.70;;;;;;5188220;28;20042;-31
2021/12/17 03:37:19;;;;;;;14.47;5.07;;;14.10;91.70;;;;;;5154803;28;20129;-32
2021/12/17 03:39:54;;;;;;;14.17;4.83;;;14.10;91.70;;;;;;5170537;28;20050;-33
2021/12/17 03:42:26;;;;;;;12.43;4.00;;;14.10;91.70;;;;;;5154578;28;20050;-31
2021/12/17 03:44:57;;;;;;;15.70;5.47;;;14.10;91.80;;;;;;5187867;28;20056;-32
2021/12/17 03:47:28;;;;;;;14.07;4.40;;;14.10;91.80;;;;;;5187917;28;20404;-31
2021/12/17 03:49:59;;;;;;;15.53;4.50;;;14.10;91.70;;;;;;5187417;28;20057;-33
2021/12/17 03:52:30;;;;;;;11.97;3.87;;;14.10;91.70;;;;;;5170334;28;20392;-33
2021/12/17 03:55:01;;;;;;;11.27;3.97;;;14.10;91.80;;;;;;5170416;28;20460;-31
2021/12/17 03:57:32;;;;;;;13.60;4.23;;;14.00;91.80;;;;;;5170128;28;20131;-31
2021/12/17 04:00:05;;;;;;;14.67;4.73;;;14.10;91.90;;;;;;5170175;28;20049;-33
2021/12/17 04:02:36;;;;;;;12.15;3.83;;;14.00;91.90;;;;;;5169776;28;20046;-31
2021/12/17 04:05:07;;;;;;;12.37;3.90;;;14.00;92.10;;;;;;5187362;28;20045;-31
2021/12/17 04:07:38;;;;;;;15.83;4.93;;;13.90;92.00;;;;;;5169884;28;20042;-32
2021/12/17 04:10:10;;;;;;;10.47;3.90;;;14.00;92.10;;;;;;5187480;28;20066;-32
2021/12/17 04:15:16;;;;;;;14.80;3.67;;;13.90;92.10;;;;;;5187134;28;20505;-31
2021/12/17 04:17:54;;;;;;;14.20;4.27;;;14.00;92.10;;;;;;5169598;28;20069;-33
2021/12/17 04:20:25;;;;;;;18.47;4.43;;;13.90;92.00;;;;;;5170574;28;20104;-33
2021/12/17 04:22:56;;;;;;;11.17;3.73;;;14.00;92.00;;;;;;5187154;28;20510;-33
2021/12/17 04:25:31;;;;;;;13.43;4.57;;;14.00;91.90;;;;;;5187114;28;20042;-33
2021/12/17 04:28:02;;;;;;;13.73;4.03;;;14.00;92.00;;;;;;5154278;28;20472;-32
2021/12/17 04:30:33;;;;;;;14.20;4.83;;;14.00;91.90;;;;;;5186979;28;20100;-30
2021/12/17 04:33:04;;;;;;;14.00;4.83;;;14.00;91.80;;;;;;5169327;28;20431;-32
2021/12/17 04:35:36;;;;;;;13.97;4.30;;;14.00;91.80;;;;;;5169594;28;20057;-32
2021/12/17 04:38:08;;;;;;;13.00;4.70;;;14.00;91.80;;;;;;5169580;28;20041;-31
2021/12/17 04:40:43;;;;;;;11.05;3.97;;;14.00;91.80;;;;;;5186902;28;20046;-31
2021/12/17 04:43:28;;;;;;;16.40;4.80;;;14.00;91.80;;;;;;5169541;28;20054;-32
2021/12/17 04:46:17;;;;;;;18.30;4.93;;;14.00;91.80;;;;;;5171539;28;20054;-31
2021/12/17 04:59:59;;;;;;;14.17;4.63;;;14.00;91.70;;;;;;5186544;28;20077;-32
2021/12/17 05:02:33;;;;;;;13.93;5.60;;;14.00;91.70;;;;;;5186687;28;20041;-30
2021/12/17 05:05:07;;;;;;;11.60;4.40;;;14.00;91.70;;;;;;5169701;28;20069;-31
2021/12/17 05:07:43;;;;;;;15.00;5.17;;;14.00;91.70;;;;;;5169662;28;20080;-32
2021/12/17 05:18:52;;;;;;;16.00;6.03;;;13.90;91.60;;;;;;5176020;28;20038;-32
2021/12/17 05:21:24;;;;;;;16.83;7.03;;;14.00;91.50;;;;;;5175993;28;20056;-33
2021/12/17 05:23:55;;;;;;;13.57;5.43;;;14.00;91.60;;;;;;5157598;28;20048;-30
2021/12/17 05:26:26;;;;;;;16.40;5.37;;;13.90;91.60;;;;;;5123876;28;20049;-32
2021/12/17 05:28:57;;;;;;;11.67;4.87;;;13.90;91.60;;;;;;5172882;28;20392;-32
2021/12/17 05:31:28;;;;;;;18.07;7.30;;;14.00;91.60;;;;;;5190907;28;20052;-32
2021/12/17 05:33:59;;;;;;;16.47;6.00;;;13.90;91.60;;;;;;5172886;28;20041;-30
2021/12/17 05:36:30;;;;;;;13.87;5.23;;;13.90;91.60;;;;;;5172827;28;20095;-31
2021/12/17 05:39:01;;;;;;;15.00;4.93;;;13.90;91.50;;;;;;5190174;28;20053;-31
2021/12/17 05:41:32;;;;;;;12.23;4.10;;;13.90;91.60;;;;;;5172380;28;20517;-31
2021/12/17 05:44:03;;;;;;;14.23;4.70;;;13.90;91.50;;;;;;5190288;28;20546;-33
2021/12/17 05:46:50;;;;;;;11.47;5.13;;;13.90;91.60;;;;;;5190076;28;20042;-31
2021/12/17 05:49:22;;;;;;;11.47;4.20;;;13.90;91.50;;;;;;5190093;28;20487;-31
2021/12/17 05:51:53;;;;;;;12.80;4.57;;;13.90;91.50;;;;;;5189919;28;20392;-31
2021/12/17 05:54:25;;;;;;;13.17;4.73;;;13.90;91.50;;;;;;5190112;28;20037;-32
2021/12/17 05:56:55;;;;;;;13.10;4.90;;;13.90;91.50;;;;;;5189536;28;20407;-30
2021/12/17 05:59:33;;;;;;;11.27;4.00;;;13.90;91.50;;;;;;5172245;28;20081;-31
2021/12/17 06:02:09;;;;;;;14.60;4.80;;;13.90;91.70;;;;;;5189841;28;20049;-31
2021/12/17 06:04:41;;;;;;;14.83;4.07;;;13.90;91.60;;;;;;5189648;28;20046;-29
2021/12/17 06:07:12;;;;;;;11.67;4.87;;;14.00;91.40;;;;;;5189362;28;20188;-30
2021/12/17 06:09:47;;;;;;;14.83;5.30;;;14.10;91.50;;;;;;5205842;28;20124;-30
2021/12/17 06:12:17;;;;;;;12.00;4.00;;;14.30;91.30;;;;;;5203455;28;20049;-30
2021/12/17 06:14:49;;;;;;;12.03;4.63;;;14.30;91.30;;;;;;5207383;28;20046;-30
2021/12/17 06:17:20;;;;;;;14.40;5.40;;;14.50;91.00;;;;;;5209864;28;20057;-30
2021/12/17 06:19:51;;;;;;;12.00;4.47;;;14.60;90.80;;;;;;5209606;28;20182;-31
2021/12/17 06:22:22;;;;;;;13.03;4.70;;;14.80;90.70;;;;;;5209802;28;20484;-30
2021/12/17 06:24:53;;;;;;;12.20;5.20;;;14.80;90.60;;;;;;5191399;28;20088;-31
2021/12/17 06:27:24;;;;;;;13.07;5.67;;;14.90;90.40;;;;;;5209578;28;20048;-30
2021/12/17 06:29:55;;;;;;;19.10;9.37;;;14.90;90.30;;;;;;5209846;28;20403;-32
2021/12/17 06:32:26;;;;;;;21.13;11.70;;;15.00;90.30;;;;;;5208696;28;20042;-33
2021/12/17 06:34:57;;;;;;;13.47;6.23;;;15.00;90.20;;;;;;5190734;28;20046;-31
2021/12/17 06:37:28;;;;;;;14.00;5.43;;;15.00;90.20;;;;;;5208976;28;20475;-31
2021/12/17 06:40:00;;;;;;;13.57;5.93;;;15.00;90.20;;;;;;5174946;28;20058;-32
2021/12/17 06:42:31;;;;;;;13.03;5.50;;;15.00;90.10;;;;;;5190546;28;20075;-31
2021/12/17 06:45:06;;;;;;;13.57;4.80;;;15.00;90.00;;;;;;5207997;28;20052;-32
2021/12/17 06:47:38;;;;;;;20.00;8.17;;;15.00;90.00;;;;;;5209422;28;20041;-30
2021/12/17 07:06:39;;;;;;;35.00;17.07;;;15.00;89.80;;;;;;5208979;28;20492;-31
2021/12/17 07:40:07;;;;;;;17.38;9.85;;;10.80;95.00;;;;;;5125264;29;20135;-28
2021/12/17 07:42:38;;;;;;;41.53;22.13;;;10.80;95.10;;;;;;5108911;29;20067;-30
2021/12/17 07:45:09;;;;;;;26.03;15.90;;;10.70;95.20;;;;;;5124978;29;20051;-30
2021/12/17 07:47:40;;;;;;;17.93;10.13;;;10.60;95.30;;;;;;5125445;28;20198;-29
2021/12/17 07:50:11;;;;;;;23.77;13.73;;;10.60;95.50;;;;;;5128573;28;20058;-31
2021/12/17 07:52:42;;;;;;;35.10;19.20;;;10.50;95.50;;;;;;5113048;28;20216;-31
2021/12/17 07:55:13;;;;;;;17.03;9.67;;;10.40;95.60;;;;;;5163431;28;20465;-29
2021/12/17 07:57:44;;;;;;;18.70;8.93;;;10.40;95.80;;;;;;5207044;28;20041;-31
2021/12/17 08:00:16;;;;;;;14.20;6.93;;;10.40;96.00;;;;;;5207950;28;20505;-29
2021/12/17 08:02:47;;;;;;;29.53;14.93;;;10.30;96.10;;;;;;5206651;28;20068;-32
2021/12/17 08:05:18;;;;;;;18.47;9.67;;;10.30;96.20;;;;;;5206569;28;20121;-30
2021/12/17 08:07:49;;;;;;;19.77;9.97;;;10.20;96.40;;;;;;5206848;28;20049;-31
2021/12/17 08:10:21;;;;;;;10.00;4.10;;;10.20;96.40;;;;;;5207539;28;20578;-31
2021/12/17 08:12:55;;;;;;;24.10;8.10;;;10.20;96.70;;;;;;5206568;28;20049;-32
2021/12/17 08:15:32;;;;;;;17.03;7.70;;;10.60;96.40;;;;;;5206445;28;20052;-29
2021/12/17 08:18:20;;;;;;;21.73;8.30;;;11.20;95.50;;;;;;5207694;28;20048;-30
2021/12/17 08:26:18;;;;;;;15.80;6.93;;;12.40;94.00;;;;;;5206884;28;20051;-30
2021/12/17 08:31:43;;;;;;;22.60;10.90;;;12.80;93.70;;;;;;5144553;28;20157;-33
2021/12/17 08:34:14;;;;;;;29.27;13.40;;;12.90;93.60;;;;;;5144424;28;20222;-33
2021/12/17 08:36:45;;;;;;;17.60;8.73;;;13.00;93.40;;;;;;5128805;28;20051;-30
2021/12/17 08:39:17;;;;;;;18.83;7.77;;;13.10;93.30;;;;;;5112344;28;20507;-31
2021/12/17 08:41:51;;;;;;;26.67;12.37;;;13.10;93.20;;;;;;5127847;28;20464;-31
2021/12/17 08:44:22;;;;;;;21.47;9.90;;;13.20;93.10;;;;;;5113191;28;20047;-31
2021/12/17 08:46:54;;;;;;;20.47;9.73;;;13.20;93.10;;;;;;5128304;28;20131;-31
2021/12/17 08:49:24;;;;;;;24.83;10.13;;;13.30;93.10;;;;;;5145041;28;20129;-29
2021/12/17 08:51:56;;;;;;;24.83;10.17;;;13.40;93.00;;;;;;5148548;28;20039;-30
2021/12/17 08:54:29;;;;;;;25.53;11.60;;;13.40;92.90;;;;;;5101511;28;20054;-30
2021/12/17 08:57:03;;;;;;;19.67;8.13;;;13.50;92.90;;;;;;5148383;28;20141;-30
2021/12/17 08:59:34;;;;;;;20.53;9.77;;;13.60;92.90;;;;;;5116390;28;20141;-33
2021/12/17 09:02:06;;;;;;;16.77;7.07;;;13.60;92.80;;;;;;5148175;28;20068;-32
2021/12/17 09:04:37;;;;;;;22.17;9.07;;;13.60;92.80;;;;;;5148494;28;20065;-31
2021/12/17 09:07:08;;;;;;;23.43;10.57;;;13.50;92.80;;;;;;5132202;28;20082;-31
2021/12/17 09:09:40;;;;;;;18.30;8.50;;;13.60;92.90;;;;;;5201916;28;20053;-33
2021/12/17 09:12:11;;;;;;;21.67;8.43;;;13.60;92.80;;;;;;5209781;28;20076;-31
2021/12/17 09:14:42;;;;;;;19.13;9.90;;;13.60;92.80;;;;;;5194200;28;20065;-32
2021/12/17 09:17:13;;;;;;;23.80;9.20;;;13.70;92.70;;;;;;5210086;28;20077;-31
2021/12/17 09:19:47;;;;;;;20.00;9.90;;;13.70;92.60;;;;;;5226131;28;20049;-30
2021/12/17 09:22:18;;;;;;;23.57;11.10;;;13.70;92.50;;;;;;5226299;28;20583;-33
2021/12/17 09:24:49;;;;;;;30.50;12.20;;;13.80;92.50;;;;;;5209725;28;20080;-30
2021/12/17 09:27:21;;;;;;;23.87;12.10;;;13.80;92.50;;;;;;5210392;28;20053;-33
2021/12/17 09:29:52;;;;;;;20.87;10.67;;;13.80;92.40;;;;;;5210026;28;20046;-33
2021/12/17 09:32:23;;;;;;;17.50;7.53;;;13.80;92.50;;;;;;5209654;28;20487;-30
2021/12/17 09:34:54;;;;;;;17.17;7.77;;;13.80;92.50;;;;;;5210581;28;20053;-32
2021/12/17 09:37:25;;;;;;;18.13;7.33;;;13.80;92.40;;;;;;5193305;28;20096;-33
2021/12/17 09:39:59;;;;;;;20.63;7.30;;;13.80;92.40;;;;;;5209707;28;20120;-30
2021/12/17 09:42:31;;;;;;;19.77;9.17;;;13.70;92.40;;;;;;5209046;28;20054;-31
2021/12/17 09:45:03;;;;;;;20.17;9.37;;;13.70;92.40;;;;;;5209296;28;20479;-32
2021/12/17 09:47:34;;;;;;;20.70;9.23;;;13.80;92.60;;;;;;5210929;28;20128;-33
2021/12/17 09:50:06;;;;;;;18.50;7.80;;;13.70;92.40;;;;;;5209697;28;20125;-33
2021/12/17 09:52:37;;;;;;;18.47;6.10;;;13.70;92.50;;;;;;5193072;28;20061;-32
2021/12/17 09:55:08;;;;;;;13.37;5.83;;;13.60;92.40;;;;;;5208890;28;20080;-32
2021/12/17 09:57:39;;;;;;;16.00;6.10;;;13.60;92.40;;;;;;5192671;28;20045;-32
2021/12/17 10:00:14;;;;;;;12.73;6.03;;;13.60;92.30;;;;;;5208841;28;20072;-31
2021/12/17 10:02:48;;;;;;;16.57;6.30;;;13.70;92.40;;;;;;5225595;28;20447;-31
2021/12/17 10:05:24;;;;;;;13.93;6.33;;;13.70;92.40;;;;;;5192585;28;20076;-31
2021/12/17 10:08:25;;;;;;;55.10;24.37;;;13.70;92.40;;;;;;5210707;28;20088;-31
2021/12/17 10:10:58;;;;;;;48.13;22.10;;;13.70;92.50;;;;;;5207004;28;20053;-32
2021/12/17 10:13:31;;;;;;;23.60;9.93;;;13.70;92.40;;;;;;5209536;28;20047;-30
2021/12/17 10:16:06;;;;;;;61.13;31.47;;;13.70;92.30;;;;;;5209838;28;20053;-30
2021/12/17 10:18:43;;;;;;;47.17;23.70;;;13.80;92.30;;;;;;5209843;28;20049;-30
2021/12/17 10:21:19;;;;;;;17.90;8.90;;;13.80;92.20;;;;;;5209091;28;20057;-31
2021/12/17 10:23:51;;;;;;;19.23;8.70;;;13.90;92.20;;;;;;5210095;28;20091;-30
2021/12/17 10:26:24;;;;;;;23.73;14.47;;;13.90;92.10;;;;;;5192260;28;20042;-30
2021/12/17 10:29:04;;;;;;;18.33;9.50;;;14.00;91.90;;;;;;5209248;28;20088;-32
2021/12/17 10:31:38;;;;;;;17.93;7.37;;;14.20;91.80;;;;;;5206162;28;20134;-31
2021/12/17 10:34:15;;;;;;;15.77;7.20;;;14.20;92.00;;;;;;5207783;28;20483;-29
2021/12/17 10:36:46;;;;;;;16.00;6.90;;;14.30;91.80;;;;;;5208310;28;20042;-30
2021/12/17 10:39:20;;;;;;;13.30;5.77;;;14.30;91.60;;;;;;5208900;28;20041;-31
2021/12/17 10:41:51;;;;;;;14.57;6.83;;;14.30;91.50;;;;;;5208875;28;20054;-32
2021/12/17 10:44:23;;;;;;;12.13;6.23;;;14.40;91.50;;;;;;5209080;28;20095;-32
2021/12/17 10:47:31;;;;;;;14.70;7.80;;;14.40;91.50;;;;;;5208137;28;20042;-31
2021/12/17 10:50:03;;;;;;;16.27;5.90;;;14.50;91.60;;;;;;5196128;28;20096;-32
2021/12/17 10:52:40;;;;;;;13.20;6.07;;;14.50;91.60;;;;;;5208835;28;20410;-32
2021/12/17 10:55:18;;;;;;;19.03;8.33;;;14.50;91.50;;;;;;5209037;28;20064;-31
2021/12/17 10:57:58;;;;;;;11.20;4.67;;;14.50;91.60;;;;;;5208856;28;20045;-31
2021/12/17 11:00:29;;;;;;;16.17;6.87;;;14.40;91.60;;;;;;5207826;28;20076;-33
2021/12/17 11:03:03;;;;;;;15.50;8.03;;;14.50;91.60;;;;;;5207569;28;20384;-31
2021/12/17 11:05:36;;;;;;;15.90;8.10;;;14.40;91.50;;;;;;5208971;28;20415;-30
2021/12/17 11:08:33;;;;;;;15.75;7.40;;;14.40;91.50;;;;;;5208599;28;20103;-33
2021/12/17 11:11:09;;;;;;;15.93;6.50;;;14.40;91.60;;;;;;5207739;28;20565;-31
2021/12/17 11:13:57;;;;;;;11.67;5.13;;;14.40;91.50;;;;;;5206840;28;20056;-31
2021/12/17 11:16:28;;;;;;;12.80;6.20;;;14.30;91.50;;;;;;5207659;28;20088;-30
2021/12/17 11:19:00;;;;;;;17.73;7.47;;;14.30;91.50;;;;;;5208113;28;20045;-31
2021/12/17 11:21:32;;;;;;;17.60;7.43;;;14.30;91.40;;;;;;5208524;28;20088;-31
2021/12/17 11:24:03;;;;;;;18.47;8.07;;;14.30;91.70;;;;;;5190987;28;20494;-31
2021/12/17 11:26:34;;;;;;;20.03;10.10;;;14.30;91.60;;;;;;5207303;28;20144;-31
2021/12/17 11:29:05;;;;;;;19.37;8.77;;;14.20;91.60;;;;;;5206992;28;20376;-30
2021/12/17 11:31:38;;;;;;;17.73;9.10;;;14.20;91.50;;;;;;5206513;28;20061;-33
2021/12/17 11:34:09;;;;;;;16.65;8.00;;;14.20;91.50;;;;;;5189939;28;20057;-32
2021/12/17 11:36:41;;;;;;;15.00;8.33;;;14.30;91.60;;;;;;5207062;28;20076;-32
2021/12/17 11:39:33;;;;;;;13.53;5.60;;;14.30;91.50;;;;;;5206826;28;20468;-32
2021/12/17 11:42:13;;;;;;;15.70;7.63;;;14.30;91.50;;;;;;5207483;28;20491;-33
2021/12/17 11:44:53;;;;;;;21.30;11.40;;;14.20;91.60;;;;;;5208067;28;20503;-33
2021/12/17 11:47:32;;;;;;;78.60;39.00;;;14.10;91.50;;;;;;5206406;28;20435;-33
2021/12/17 11:50:05;;;;;;;38.17;16.50;;;14.20;91.40;;;;;;5191165;28;20049;-31
2021/12/17 11:52:48;;;;;;;51.93;21.77;;;14.20;91.60;;;;;;5207906;28;20041;-31
2021/12/17 11:55:25;;;;;;;144.00;53.85;;;14.10;91.40;;;;;;5206850;28;20554;-32
2021/12/17 11:57:58;;;;;;;54.47;22.07;;;14.20;91.60;;;;;;5207759;28;20060;-31
2021/12/17 12:00:44;;;;;;;;;;;14.20;91.50;;;;;;5207021;28;20056;-33
2021/12/17 12:03:22;;;;;;;46.13;19.50;;;14.10;91.50;;;;;;5207329;28;20363;-31
2021/12/17 12:06:00;;;;;;;38.00;17.63;;;14.20;91.50;;;;;;5206369;28;20052;-31
2021/12/17 12:11:39;;;;;;;58.03;28.70;;;14.20;91.40;;;;;;5124484;29;20067;-33
2021/12/17 12:14:29;;;;;;;47.93;32.47;;;14.20;91.40;;;;;;5108218;29;20556;-34
2021/12/17 12:17:00;;;;;;;25.43;15.43;;;14.20;91.40;;;;;;5110971;29;20090;-34
2021/12/17 12:19:49;;;;;;;17.27;11.60;;;14.20;91.30;;;;;;5108280;29;20062;-32
2021/12/17 12:22:30;;;;;;;15.13;6.57;;;14.10;91.30;;;;;;5108472;29;20547;-32
2021/12/17 12:25:29;;;;;;;10.27;4.27;;;14.10;91.50;;;;;;5108320;29;20047;-32
2021/12/17 12:28:00;;;;;;;10.13;4.10;;;14.00;91.50;;;;;;5108323;29;20481;-32
2021/12/17 12:30:43;;;;;;;13.83;5.83;;;13.90;91.40;;;;;;5108367;29;20043;-33
2021/12/17 12:33:14;;;;;;;14.73;5.10;;;14.00;91.50;;;;;;5124130;29;20051;-32
2021/12/17 12:35:57;;;;;;;13.57;4.50;;;14.00;91.50;;;;;;5092932;29;20449;-35
2021/12/17 12:38:32;;;;;;;16.60;5.68;;;14.00;91.50;;;;;;5124229;29;20047;-32
2021/12/17 12:41:07;;;;;;;11.13;4.67;;;14.00;91.60;;;;;;5108204;29;20051;-32
2021/12/17 12:43:38;;;;;;;13.23;4.80;;;13.90;91.90;;;;;;5124134;29;20130;-32
2021/12/17 12:46:14;;;;;;;10.83;4.30;;;13.90;91.60;;;;;;5123857;29;20048;-32
2021/12/17 12:49:23;;;;;;;;;;;13.90;91.50;;;;;;5160152;28;20041;-34
2021/12/17 12:52:14;;;;;;;10.93;4.33;;;13.90;91.50;;;;;;5204784;28;19943;-32
2021/12/17 12:54:48;;;;;;;10.70;4.77;;;13.90;91.50;;;;;;5203823;28;20572;-32
2021/12/17 12:57:39;;;;;;;14.77;5.80;;;13.90;91.50;;;;;;5203297;28;20057;-32
2021/12/17 13:00:20;;;;;;;15.20;9.70;;;13.80;91.50;;;;;;5187445;28;20095;-32
2021/12/17 13:02:55;;;;;;;13.87;6.40;;;13.80;91.40;;;;;;5188939;28;20053;-32
2021/12/17 13:05:27;;;;;;;9.83;4.70;;;13.80;91.50;;;;;;5204413;28;20533;-32
2021/12/17 13:08:00;;;;;;;14.07;5.27;;;13.80;91.50;;;;;;5188419;28;20503;-35
2021/12/17 13:10:43;;;;;;;11.73;5.28;;;13.70;91.50;;;;;;5204749;28;20066;-33
2021/12/17 13:16:08;;;;;;;13.80;6.10;;;13.80;91.40;;;;;;5204600;28;20531;-33
2021/12/17 13:24:30;;;;;;;13.03;5.60;;;13.70;91.60;;;;;;5206147;28;20069;-32
2021/12/17 13:27:12;;;;;;;15.47;6.63;;;13.60;91.60;;;;;;5189746;28;20056;-32
2021/12/17 13:29:44;;;;;;;13.23;5.53;;;13.70;91.70;;;;;;5190217;28;20499;-32
2021/12/17 13:32:17;;;;;;;12.67;6.13;;;13.60;91.70;;;;;;5206331;28;20543;-32
2021/12/17 13:34:56;;;;;;;13.30;6.10;;;13.60;91.80;;;;;;5205482;28;20072;-32
2021/12/17 13:37:30;;;;;;;16.40;7.20;;;13.60;91.80;;;;;;5209901;28;20049;-32
2021/12/17 13:40:07;;;;;;;20.37;12.20;;;13.60;91.80;;;;;;5210476;28;20037;-31
2021/12/17 13:42:42;;;;;;;19.17;10.83;;;13.60;91.80;;;;;;5209740;28;20057;-34
2021/12/17 13:45:19;;;;;;;15.77;8.43;;;13.70;91.80;;;;;;5210278;28;20132;-31
2021/12/17 13:47:55;;;;;;;15.67;7.60;;;13.70;91.80;;;;;;5193542;28;20535;-32
2021/12/17 13:50:29;;;;;;;13.03;5.30;;;13.70;91.80;;;;;;5210165;28;20121;-32
2021/12/17 13:53:06;;;;;;;11.60;6.20;;;13.70;91.70;;;;;;5209936;28;20041;-31
2021/12/17 13:55:42;;;;;;;18.83;7.83;;;13.70;91.80;;;;;;5210801;28;20133;-30
2021/12/17 13:58:20;;;;;;;18.80;7.53;;;13.70;91.80;;;;;;5209981;28;20084;-31
2021/12/17 14:00:55;;;;;;;38.73;35.33;;;13.70;91.80;;;;;;5208975;28;20080;-30
2021/12/17 14:03:31;;;;;;;14.17;8.10;;;13.80;91.70;;;;;;5192044;28;20432;-31
2021/12/17 14:06:46;;;;;;;14.77;6.80;;;13.90;91.70;;;;;;5207627;28;20056;-32
2021/12/17 14:09:01;;;;;;;16.67;7.50;;;13.90;91.50;;;;;;5209873;28;20130;-32
2021/12/17 14:11:35;;;;;;;13.82;7.03;;;14.00;91.40;;;;;;5210204;28;20489;-32
2021/12/17 14:14:23;;;;;;;17.60;10.63;;;14.10;91.40;;;;;;5209982;28;20045;-31
2021/12/17 14:17:00;;;;;;;16.27;10.87;;;14.20;91.20;;;;;;5209736;28;20542;-31
2021/12/17 14:19:45;;;;;;;18.13;9.23;;;14.20;91.20;;;;;;5208213;28;20053;-31
2021/12/17 14:22:28;;;;;;;19.80;13.17;;;14.10;91.10;;;;;;5209881;28;20488;-33
2021/12/17 14:24:59;;;;;;;15.52;9.60;;;14.20;91.10;;;;;;5208992;28;20056;-32
2021/12/17 14:27:47;;;;;;;16.23;10.40;;;14.20;91.00;;;;;;5210102;28;20041;-31
2021/12/17 14:30:33;;;;;;;19.83;11.57;;;14.20;90.90;;;;;;5208548;28;20049;-33
2021/12/17 14:33:10;;;;;;;26.03;18.50;;;14.30;90.90;;;;;;5192935;28;20053;-30
2021/12/17 14:35:47;;;;;;;19.03;10.93;;;14.30;90.90;;;;;;5208148;28;20045;-30
2021/12/17 14:38:20;;;;;;;24.93;21.47;;;14.20;90.90;;;;;;5207825;28;20077;-33
2021/12/17 14:40:57;;;;;;;35.70;26.10;;;14.20;90.90;;;;;;5208133;28;20056;-31
2021/12/17 14:43:49;;;;;;;18.20;10.77;;;14.10;91.10;;;;;;5209115;28;20191;-29
2021/12/17 14:46:24;;;;;;;16.10;11.07;;;14.10;91.00;;;;;;5209029;28;20077;-31
2021/12/17 14:49:23;;;;;;;15.57;8.97;;;14.10;90.90;;;;;;5208989;28;20120;-31
2021/12/17 15:00:50;;;;;;;23.93;13.20;;;14.20;90.90;;;;;;5189036;28;20049;-31
2021/12/17 15:03:41;;;;;;;18.17;10.93;;;14.10;90.90;;;;;;5153227;28;20066;-31
2021/12/17 15:06:15;;;;;;;29.70;16.90;;;14.10;90.90;;;;;;5152087;28;20052;-32
2021/12/17 15:08:46;;;;;;;47.30;24.10;;;14.10;90.80;;;;;;5165717;28;20082;-33
2021/12/17 15:11:31;;;;;;;34.10;17.20;;;14.10;90.80;;;;;;5149815;28;20050;-32
2021/12/17 15:14:02;;;;;;;23.43;12.50;;;14.10;90.80;;;;;;5165936;28;20054;-32
2021/12/17 15:16:33;;;;;;;22.37;11.80;;;14.10;90.80;;;;;;5165603;28;20100;-32
2021/12/17 15:19:04;;;;;;;27.43;16.80;;;14.10;90.80;;;;;;5149582;28;20512;-33
2021/12/17 15:21:35;;;;;;;23.20;13.27;;;14.10;90.70;;;;;;5165733;28;20077;-30
2021/12/17 15:24:08;;;;;;;49.43;35.47;;;14.10;90.70;;;;;;5165601;28;20058;-29
2021/12/17 15:26:39;;;;;;;25.70;15.37;;;14.10;90.80;;;;;;5165222;28;20051;-32
2021/12/17 15:29:11;;;;;;;23.00;15.80;;;14.10;90.70;;;;;;5165128;28;20050;-32
2021/12/17 15:31:42;;;;;;;21.90;14.63;;;14.20;90.60;;;;;;5138075;28;20070;-31
2021/12/17 15:34:12;;;;;;;24.37;13.97;;;14.20;90.90;;;;;;5166876;28;20189;-32
2021/12/17 15:36:44;;;;;;;22.93;15.83;;;14.20;90.60;;;;;;5169291;28;20566;-33
2021/12/17 15:39:15;;;;;;;27.43;18.13;;;14.20;90.60;;;;;;5166079;28;20047;-32
2021/12/17 15:41:46;;;;;;;21.23;12.53;;;14.10;90.50;;;;;;5172064;28;20089;-30
2021/12/17 15:44:17;;;;;;;23.97;15.07;;;14.10;90.70;;;;;;5187369;28;20045;-30
2021/12/17 15:46:50;;;;;;;16.60;9.93;;;14.10;90.70;;;;;;5179398;28;20114;-34
2021/12/17 15:49:20;;;;;;;24.92;13.07;;;14.10;90.60;;;;;;5175818;28;20415;-31
2021/12/17 15:51:52;;;;;;;21.77;14.23;;;14.20;90.60;;;;;;5175818;28;20560;-31
2021/12/17 15:54:22;;;;;;;24.40;13.93;;;14.20;90.60;;;;;;5183015;28;20054;-34
2021/12/17 15:56:54;;;;;;;20.10;12.17;;;14.20;90.40;;;;;;5176058;28;20049;-32
2021/12/17 15:59:24;;;;;;;25.97;15.63;;;14.20;90.20;;;;;;5175558;28;20050;-32
2021/12/17 16:01:57;;;;;;;35.83;25.40;;;14.20;90.20;;;;;;5176989;28;20408;-31
2021/12/17 16:04:31;;;;;;;26.07;16.63;;;14.20;90.30;;;;;;5177470;28;20049;-32
2021/12/17 16:07:03;;;;;;;22.13;13.57;;;14.20;90.30;;;;;;5185643;28;20117;-32
2021/12/17 16:23:06;;;;;;;20.93;10.70;;;14.00;90.50;;;;;;5173991;28;20404;-34
2021/12/17 16:25:37;;;;;;;21.93;11.50;;;14.00;90.50;;;;;;5175508;28;20049;-33
2021/12/17 16:28:08;;;;;;;19.17;10.63;;;14.00;90.50;;;;;;5175270;28;20326;-32
2021/12/17 16:30:39;;;;;;;19.67;10.07;;;14.00;90.40;;;;;;5176223;28;20049;-34
2021/12/17 16:33:10;;;;;;;30.07;16.60;;;13.90;90.50;;;;;;5175855;28;20053;-33
2021/12/17 16:35:41;;;;;;;23.37;13.17;;;14.00;90.50;;;;;;5175978;28;20402;-32
2021/12/17 16:38:12;;;;;;;39.73;25.63;;;13.90;90.60;;;;;;5178113;28;20072;-33
2021/12/17 16:40:43;;;;;;;25.37;16.97;;;13.90;90.50;;;;;;5175578;28;20050;-31